Dimonios — 5BTW4 — position and weather

sailwx.info

Track history (hours):
 
Tides and Currents Weather Stations Pressure Air Temp Water Temp Dewpoint Dewpoint Depression Visibility Wind Speed Wind Dir Waves Ship Positions

Dimonios

Last reported at 2018-Jun-20 17:28 UTC. Time now 2018-Jun-20 17:28 UTC.
Position N 39°27' E 002°27'.

Length 188 m; draft 6.1 m.

Type: Ship. MMSI: 209042000.

Date/timePositionNaut miles runAvg speedWind from/ knotsBaromVisibWave heightAir tempDewpointWater temp
2018-Jun-20 17:28N 39°27' E 002°27'5018.9
2018-Jun-20 14:51N 40°16' E 002°15'720.3
2018-Jun-20 14:30N 40°23' E 002°15'1020.2
2018-Jun-20 14:00N 40°33' E 002°15'1020.6
2018-Jun-20 13:30N 40°43' E 002°14'1120.5
2018-Jun-20 12:59N 40°54' E 002°14'1020.2
2018-Jun-20 12:30N 41°04' E 002°13'1019.9
2018-Jun-20 12:00N 41°13' E 002°14'917.2
2018-Jun-20 11:30N 41°22' E 002°11'0 0.1
2018-Jun-20 05:12N 41°22' E 002°11'2 7.8
2018-Jun-20 05:00N 41°21' E 002°12'917.3
2018-Jun-20 04:30N 41°13' E 002°15'1018.5
2018-Jun-20 03:59N 41°03' E 002°16'1218.3
2018-Jun-20 03:19N 40°51' E 002°16'618.6
2018-Jun-20 03:00N 40°45' E 002°17'7619.7
2018-Jun-19 23:11N 39°29' E 002°17'419.7
2018-Jun-19 23:00N 39°27' E 002°21'919.3
2018-Jun-19 22:30N 39°27' E 002°33'814.7
2018-Jun-19 21:58N 39°34' E 002°38'0 0.0
2018-Jun-19 21:28N 39°34' E 002°38'0 0.0
2018-Jun-19 20:58N 39°34' E 002°38'0 0.0
2018-Jun-19 20:28N 39°34' E 002°38'0 0.0
2018-Jun-19 19:58N 39°34' E 002°38'0 0.0
2018-Jun-19 19:28N 39°34' E 002°38'0 0.0
2018-Jun-19 18:58N 39°34' E 002°38'0 0.0
2018-Jun-19 18:30N 39°34' E 002°38'2 3.8
2018-Jun-19 18:00N 39°32' E 002°38'917.9
2018-Jun-19 17:30N 39°27' E 002°28'1319.1
2018-Jun-19 16:49N 39°36' E 002°17'720.0
2018-Jun-19 16:27N 39°43' E 002°16'6620.4
2018-Jun-19 13:14N 40°49' E 002°14'520.4
2018-Jun-19 12:59N 40°54' E 002°13'1020.4
2018-Jun-19 12:30N 41°04' E 002°13'1020.3
2018-Jun-19 12:00N 41°14' E 002°13'8 1.3
2018-Jun-19 05:25N 41°22' E 002°11'2 3.7
2018-Jun-19 05:00N 41°21' E 002°11'917.3
2018-Jun-19 04:30N 41°13' E 002°15'1019.6
2018-Jun-19 04:01N 41°03' E 002°16'1019.5
2018-Jun-19 03:30N 40°53' E 002°17'1319.0
2018-Jun-19 02:49N 40°40' E 002°17'1018.4
2018-Jun-19 02:17N 40°30' E 002°16'518.5
2018-Jun-19 02:00N 40°25' E 002°16'5618.8
2018-Jun-18 23:01N 39°29' E 002°19'120.2
2018-Jun-18 22:57N 39°28' E 002°20'919.4
2018-Jun-18 22:30N 39°26' E 002°31'918.9
2018-Jun-18 22:00N 39°33' E 002°38'0 0.8
2018-Jun-18 21:30N 39°34' E 002°38'0 0.0
2018-Jun-18 21:00N 39°34' E 002°38'0 0.0
2018-Jun-18 20:30N 39°34' E 002°38'0 0.0
2018-Jun-18 20:00N 39°34' E 002°38'0 0.0
2018-Jun-18 19:30N 39°34' E 002°38'0 0.0
2018-Jun-18 19:00N 39°34' E 002°38'0 0.0
2018-Jun-18 18:30N 39°34' E 002°38'1 1.4
2018-Jun-18 18:01N 39°33' E 002°39'918.4
2018-Jun-18 17:30N 39°26' E 002°31'6318.7
2018-Jun-18 14:06N 40°28' E 002°14'220.2
2018-Jun-18 14:00N 40°31' E 002°14'1320.3
2018-Jun-18 13:21N 40°44' E 002°14'720.4
2018-Jun-18 13:00N 40°51' E 002°14'1020.5
2018-Jun-18 12:30N 41°01' E 002°14'1020.2
2018-Jun-18 12:00N 41°11' E 002°15'918.8
2018-Jun-18 11:31N 41°20' E 002°12'2 0.4
2018-Jun-18 05:12N 41°22' E 002°11'2 7.7
2018-Jun-18 05:00N 41°21' E 002°12'815.3
2018-Jun-18 04:30N 41°14' E 002°15'1018.6
2018-Jun-18 03:57N 41°03' E 002°15'9718.1
2018-Jun-17 22:37N 39°27' E 002°23'218.6
2018-Jun-17 22:30N 39°26' E 002°25'816.1
2018-Jun-17 22:00N 39°28' E 002°35'611.3
2018-Jun-17 21:30N 39°34' E 002°38'0 0.0
2018-Jun-17 20:59N 39°34' E 002°38'0 0.0
2018-Jun-17 20:29N 39°34' E 002°38'0 0.0
2018-Jun-17 19:59N 39°34' E 002°38'0 0.0
2018-Jun-17 19:29N 39°34' E 002°38'0 0.0
2018-Jun-17 18:56N 39°34' E 002°38'0 0.0
2018-Jun-17 18:29N 39°34' E 002°38'0 0.0
2018-Jun-17 17:56N 39°34' E 002°38'0 0.0
2018-Jun-17 17:29N 39°34' E 002°38'0 0.0
2018-Jun-17 16:59N 39°34' E 002°38'0 0.0
2018-Jun-17 16:29N 39°34' E 002°38'0 0.0
2018-Jun-17 15:59N 39°34' E 002°38'0 0.0
2018-Jun-17 15:29N 39°34' E 002°38'0 0.0
2018-Jun-17 14:59N 39°34' E 002°38'0 0.0
2018-Jun-17 14:29N 39°34' E 002°38'0 0.0
2018-Jun-17 13:56N 39°34' E 002°38'0 0.0
2018-Jun-17 13:29N 39°34' E 002°38'0 0.0
2018-Jun-17 12:59N 39°34' E 002°38'0 0.0
2018-Jun-17 12:29N 39°34' E 002°38'0 0.0
2018-Jun-17 11:56N 39°34' E 002°38'0 0.0
2018-Jun-17 11:29N 39°34' E 002°38'0 0.0
2018-Jun-17 10:59N 39°34' E 002°38'0 0.0
2018-Jun-17 10:29N 39°34' E 002°38'0 0.0
2018-Jun-17 09:59N 39°34' E 002°38'0 0.0
2018-Jun-17 09:29N 39°34' E 002°38'0 0.0
2018-Jun-17 08:59N 39°34' E 002°38'0 0.0
2018-Jun-17 08:29N 39°34' E 002°38'0 0.0
2018-Jun-17 07:59N 39°34' E 002°38'0 0.0
2018-Jun-17 07:29N 39°34' E 002°38'0 0.0
2018-Jun-17 06:56N 39°34' E 002°38'0 0.0
2018-Jun-17 06:29N 39°34' E 002°38'0 0.0
2018-Jun-17 05:59N 39°34' E 002°38'0 0.0
2018-Jun-17 05:29N 39°34' E 002°38'1 2.9
2018-Jun-17 05:00N 39°32' E 002°38'816.5
2018-Jun-17 04:30N 39°26' E 002°31'4614.9
2018-Jun-17 01:25N 40°10' E 002°14'2016.5
2018-Jun-17 00:13N 40°30' E 002°14'1717.8
2018-Jun-16 23:15N 40°47' E 002°14'820.2
2018-Jun-16 22:50N 40°56' E 002°14'720.2
2018-Jun-16 22:30N 41°02' E 002°13'1020.0
2018-Jun-16 22:00N 41°12' E 002°14'918.7
2018-Jun-16 21:30N 41°21' E 002°11'1 0.1
2018-Jun-16 05:55N 41°22' E 002°11'4 9.2
2018-Jun-16 05:30N 41°19' E 002°14'611.1
2018-Jun-16 05:00N 41°14' E 002°15'917.0
2018-Jun-16 04:29N 41°05' E 002°14'5317.0
2018-Jun-16 01:22N 40°12' E 002°17'1017.3
2018-Jun-16 00:48N 40°02' E 002°16'517.3
2018-Jun-16 00:29N 39°56' E 002°16'1018.7
2018-Jun-15 23:55N 39°46' E 002°16'1818.1
2018-Jun-15 22:56N 39°29' E 002°22'819.0
2018-Jun-15 22:30N 39°26' E 002°32'917.3
2018-Jun-15 22:00N 39°33' E 002°38'0 0.5
2018-Jun-15 21:29N 39°34' E 002°38'0 0.0
2018-Jun-15 20:59N 39°34' E 002°38'0 0.0
2018-Jun-15 20:29N 39°34' E 002°38'0 0.0
2018-Jun-15 19:59N 39°34' E 002°38'0 0.0
2018-Jun-15 19:29N 39°34' E 002°38'0 0.0
2018-Jun-15 18:59N 39°34' E 002°38'0 0.0
2018-Jun-15 18:27N 39°34' E 002°38'613.1
2018-Jun-15 18:00N 39°28' E 002°34'2915.8
2018-Jun-15 16:10N 39°54' E 002°16'820.0
2018-Jun-15 15:47N 40°01' E 002°16'720.3
2018-Jun-15 15:28N 40°08' E 002°16'2019.9
2018-Jun-15 14:27N 40°28' E 002°14'1319.6
2018-Jun-15 13:46N 40°41' E 002°15'520.2
2018-Jun-15 13:30N 40°47' E 002°14'1420.3
2018-Jun-15 12:49N 41°01' E 002°13'619.9
2018-Jun-15 12:31N 41°07' E 002°13'1019.7
2018-Jun-15 12:00N 41°17' E 002°13'6 3.2
2018-Jun-15 10:07N 41°22' E 002°11'0 0.0
2018-Jun-15 07:04N 41°22' E 002°11'0 0.1
2018-Jun-15 06:58N 41°22' E 002°11'0 0.0
2018-Jun-15 05:24N 41°22' E 002°11'3 7.4
2018-Jun-15 05:00N 41°20' E 002°13'816.1
2018-Jun-15 04:31N 41°12' E 002°17'1017.0
2018-Jun-15 03:57N 41°03' E 002°15'9319.2
2018-Jun-14 23:06N 39°30' E 002°19'219.5
2018-Jun-14 22:59N 39°28' E 002°21'919.0
2018-Jun-14 22:30N 39°26' E 002°32'918.5
2018-Jun-14 22:00N 39°33' E 002°39'0 0.7
2018-Jun-14 21:28N 39°34' E 002°38'0 0.0
2018-Jun-14 20:58N 39°34' E 002°38'0 0.0
2018-Jun-14 20:28N 39°34' E 002°38'0 0.0
2018-Jun-14 19:58N 39°34' E 002°38'0 0.0
2018-Jun-14 19:28N 39°34' E 002°38'0 0.0
2018-Jun-14 18:58N 39°34' E 002°38'0 0.0
2018-Jun-14 18:28N 39°34' E 002°38'2 3.8
2018-Jun-14 18:00N 39°32' E 002°38'918.0
2018-Jun-14 17:30N 39°27' E 002°28'9519.1
2018-Jun-14 12:30N 41°02' E 002°14'1019.6
2018-Jun-14 12:00N 41°11' E 002°14'918.7
2018-Jun-14 11:30N 41°20' E 002°12'2 0.3
2018-Jun-14 05:16N 41°22' E 002°11'1 5.6
2018-Jun-14 05:00N 41°21' E 002°12'917.6
2018-Jun-14 04:30N 41°13' E 002°15'9019.4
2018-Jun-13 23:51N 39°42' E 002°17'1317.9
2018-Jun-13 23:06N 39°29' E 002°20'218.9
2018-Jun-13 22:59N 39°28' E 002°21'918.6
2018-Jun-13 22:30N 39°26' E 002°33'816.7
2018-Jun-13 22:00N 39°33' E 002°38'0 0.3
2018-Jun-13 21:30N 39°34' E 002°38'0 0.0
2018-Jun-13 21:00N 39°34' E 002°38'0 0.0
2018-Jun-13 20:30N 39°34' E 002°38'0 0.0
2018-Jun-13 20:00N 39°34' E 002°38'0 0.0
2018-Jun-13 19:30N 39°34' E 002°38'0 0.0
2018-Jun-13 19:00N 39°34' E 002°38'0 0.0
2018-Jun-13 18:30N 39°34' E 002°38'2 3.4
2018-Jun-13 18:00N 39°32' E 002°38'918.3
2018-Jun-13 17:30N 39°26' E 002°29'7618.7
2018-Jun-13 13:26N 40°42' E 002°14'920.0
2018-Jun-13 12:59N 40°50' E 002°14'1020.3
2018-Jun-13 12:31N 41°00' E 002°14'1020.3
2018-Jun-13 12:00N 41°10' E 002°15'1019.3
2018-Jun-13 11:30N 41°20' E 002°13'3 0.5
2018-Jun-13 05:22N 41°22' E 002°11'2 6.1
2018-Jun-13 05:00N 41°20' E 002°12'1019.2
2018-Jun-13 04:30N 41°11' E 002°15'6519.2
2018-Jun-13 01:08N 40°06' E 002°17'3618.2
2018-Jun-12 23:08N 39°30' E 002°20'318.9
2018-Jun-12 23:00N 39°28' E 002°23'817.2
2018-Jun-12 22:30N 39°27' E 002°34'714.1
2018-Jun-12 21:59N 39°34' E 002°38'0 0.0
2018-Jun-12 21:29N 39°34' E 002°38'0 0.0
2018-Jun-12 20:59N 39°34' E 002°38'0 0.0
2018-Jun-12 20:29N 39°34' E 002°38'0 0.0
2018-Jun-12 19:59N 39°34' E 002°38'0 0.0
2018-Jun-12 19:29N 39°34' E 002°38'0 0.0
2018-Jun-12 18:47N 39°34' E 002°38'0 0.0
2018-Jun-12 18:29N 39°34' E 002°38'2 3.8
2018-Jun-12 18:00N 39°32' E 002°38'918.4
2018-Jun-12 17:30N 39°26' E 002°28'9019.0
2018-Jun-12 12:47N 40°55' E 002°14'620.0
2018-Jun-12 12:30N 41°01' E 002°14'1019.7
2018-Jun-12 12:00N 41°11' E 002°15'918.8
2018-Jun-12 11:30N 41°20' E 002°13'3 4.2
2018-Jun-12 10:51N 41°22' E 002°11'0 0.0
2018-Jun-12 10:28N 41°22' E 002°11'0 0.0
2018-Jun-12 09:49N 41°22' E 002°11'0 0.0
2018-Jun-12 09:28N 41°22' E 002°11'0 0.0
2018-Jun-12 08:40N 41°22' E 002°11'0 0.0
2018-Jun-12 08:30N 41°22' E 002°11'0 0.0
2018-Jun-12 08:00N 41°22' E 002°11'0 0.0
2018-Jun-12 07:29N 41°22' E 002°11'0 0.0
2018-Jun-12 07:00N 41°22' E 002°11'0 0.0
2018-Jun-12 06:25N 41°22' E 002°11'0 0.0
2018-Jun-12 05:59N 41°22' E 002°11'0 0.0
2018-Jun-12 05:23N 41°22' E 002°11'1 4.0
2018-Jun-12 05:01N 41°21' E 002°12'816.7
2018-Jun-12 04:30N 41°13' E 002°15'1018.2
2018-Jun-12 03:59N 41°03' E 002°15'5319.1
2018-Jun-12 01:14N 40°11' E 002°17'519.6
2018-Jun-12 00:58N 40°06' E 002°17'1220.1
2018-Jun-12 00:21N 39°53' E 002°17'2319.0
2018-Jun-11 23:08N 39°30' E 002°20'219.3
2018-Jun-11 23:00N 39°28' E 002°22'917.9
2018-Jun-11 22:31N 39°26' E 002°33'815.5
2018-Jun-11 21:58N 39°34' E 002°38'0 0.0
2018-Jun-11 21:28N 39°34' E 002°38'0 0.0
2018-Jun-11 20:58N 39°34' E 002°38'0 0.0
2018-Jun-11 20:28N 39°34' E 002°38'0 0.0
2018-Jun-11 19:58N 39°34' E 002°38'0 0.0
2018-Jun-11 19:28N 39°34' E 002°38'0 0.0
2018-Jun-11 18:58N 39°34' E 002°38'0 0.0
2018-Jun-11 18:29N 39°34' E 002°38'510.3
2018-Jun-11 18:00N 39°29' E 002°36'816.5
2018-Jun-11 17:30N 39°28' E 002°25'6319.2
2018-Jun-11 14:15N 40°30' E 002°15'619.1
2018-Jun-11 13:57N 40°35' E 002°15'1019.7
2018-Jun-11 13:28N 40°45' E 002°15'920.1
2018-Jun-11 13:01N 40°54' E 002°14'1020.0
2018-Jun-11 12:30N 41°04' E 002°14'1019.7
2018-Jun-11 12:01N 41°14' E 002°14'816.4
2018-Jun-11 11:31N 41°22' E 002°11'0 0.0
2018-Jun-11 05:09N 41°22' E 002°11'1 7.1
2018-Jun-11 05:01N 41°21' E 002°11'612.8
2018-Jun-11 04:30N 41°16' E 002°16'1019.0
2018-Jun-11 04:00N 41°06' E 002°14'7319.3
2018-Jun-11 00:15N 39°54' E 002°17'2418.9
2018-Jun-10 23:00N 39°30' E 002°19'918.6
2018-Jun-10 22:30N 39°25' E 002°29'918.6
2018-Jun-10 22:00N 39°31' E 002°38'2 3.9
2018-Jun-10 21:28N 39°34' E 002°38'0 0.0
2018-Jun-10 20:58N 39°34' E 002°38'0 0.0
2018-Jun-10 20:28N 39°34' E 002°38'0 0.0
2018-Jun-10 19:58N 39°34' E 002°38'0 0.0
2018-Jun-10 19:28N 39°34' E 002°38'0 0.0
2018-Jun-10 18:58N 39°34' E 002°38'0 0.0
2018-Jun-10 18:28N 39°34' E 002°38'0 0.0
2018-Jun-10 17:58N 39°34' E 002°38'  
Track history (hours):
 
Tides and Currents Weather Stations Pressure Air Temp Water Temp Dewpoint Dewpoint Depression Visibility Wind Speed Wind Dir Waves Ship Positions

Dimonios

Last reported at 2018-Jun-20 17:28 UTC. Time now 2018-Jun-20 17:28 UTC.
Position N 39°27' E 002°27'.

Length 188 m; draft 6.1 m.

Type: Ship. MMSI: 209042000.

Date/timePositionNaut miles runAvg speedWind from/ knotsBaromVisibWave heightAir tempDewpointWater temp
2018-Jun-20 17:28N 39°27' E 002°27'5018.9
2018-Jun-20 14:51N 40°16' E 002°15'720.3
2018-Jun-20 14:30N 40°23' E 002°15'1020.2
2018-Jun-20 14:00N 40°33' E 002°15'1020.6
2018-Jun-20 13:30N 40°43' E 002°14'1120.5
2018-Jun-20 12:59N 40°54' E 002°14'1020.2
2018-Jun-20 12:30N 41°04' E 002°13'1019.9
2018-Jun-20 12:00N 41°13' E 002°14'917.2
2018-Jun-20 11:30N 41°22' E 002°11'0 0.1
2018-Jun-20 05:12N 41°22' E 002°11'2 7.8
2018-Jun-20 05:00N 41°21' E 002°12'917.3
2018-Jun-20 04:30N 41°13' E 002°15'1018.5
2018-Jun-20 03:59N 41°03' E 002°16'1218.3
2018-Jun-20 03:19N 40°51' E 002°16'618.6
2018-Jun-20 03:00N 40°45' E 002°17'7619.7
2018-Jun-19 23:11N 39°29' E 002°17'419.7
2018-Jun-19 23:00N 39°27' E 002°21'919.3
2018-Jun-19 22:30N 39°27' E 002°33'814.7
2018-Jun-19 21:58N 39°34' E 002°38'0 0.0
2018-Jun-19 21:28N 39°34' E 002°38'0 0.0
2018-Jun-19 20:58N 39°34' E 002°38'0 0.0
2018-Jun-19 20:28N 39°34' E 002°38'0 0.0
2018-Jun-19 19:58N 39°34' E 002°38'0 0.0
2018-Jun-19 19:28N 39°34' E 002°38'0 0.0
2018-Jun-19 18:58N 39°34' E 002°38'0 0.0
2018-Jun-19 18:30N 39°34' E 002°38'2 3.8
2018-Jun-19 18:00N 39°32' E 002°38'917.9
2018-Jun-19 17:30N 39°27' E 002°28'1319.1
2018-Jun-19 16:49N 39°36' E 002°17'720.0
2018-Jun-19 16:27N 39°43' E 002°16'6620.4
2018-Jun-19 13:14N 40°49' E 002°14'520.4
2018-Jun-19 12:59N 40°54' E 002°13'1020.4
2018-Jun-19 12:30N 41°04' E 002°13'1020.3
2018-Jun-19 12:00N 41°14' E 002°13'8 1.3
2018-Jun-19 05:25N 41°22' E 002°11'2 3.7
2018-Jun-19 05:00N 41°21' E 002°11'917.3
2018-Jun-19 04:30N 41°13' E 002°15'1019.6
2018-Jun-19 04:01N 41°03' E 002°16'1019.5
2018-Jun-19 03:30N 40°53' E 002°17'1319.0
2018-Jun-19 02:49N 40°40' E 002°17'1018.4
2018-Jun-19 02:17N 40°30' E 002°16'518.5
2018-Jun-19 02:00N 40°25' E 002°16'5618.8
2018-Jun-18 23:01N 39°29' E 002°19'120.2
2018-Jun-18 22:57N 39°28' E 002°20'919.4
2018-Jun-18 22:30N 39°26' E 002°31'918.9
2018-Jun-18 22:00N 39°33' E 002°38'0 0.8
2018-Jun-18 21:30N 39°34' E 002°38'0 0.0
2018-Jun-18 21:00N 39°34' E 002°38'0 0.0
2018-Jun-18 20:30N 39°34' E 002°38'0 0.0
2018-Jun-18 20:00N 39°34' E 002°38'0 0.0
2018-Jun-18 19:30N 39°34' E 002°38'0 0.0
2018-Jun-18 19:00N 39°34' E 002°38'0 0.0
2018-Jun-18 18:30N 39°34' E 002°38'1 1.4
2018-Jun-18 18:01N 39°33' E 002°39'918.4
2018-Jun-18 17:30N 39°26' E 002°31'6318.7
2018-Jun-18 14:06N 40°28' E 002°14'220.2
2018-Jun-18 14:00N 40°31' E 002°14'1320.3
2018-Jun-18 13:21N 40°44' E 002°14'720.4
2018-Jun-18 13:00N 40°51' E 002°14'1020.5
2018-Jun-18 12:30N 41°01' E 002°14'1020.2
2018-Jun-18 12:00N 41°11' E 002°15'918.8
2018-Jun-18 11:31N 41°20' E 002°12'2 0.4
2018-Jun-18 05:12N 41°22' E 002°11'2 7.7
2018-Jun-18 05:00N 41°21' E 002°12'815.3
2018-Jun-18 04:30N 41°14' E 002°15'1018.6
2018-Jun-18 03:57N 41°03' E 002°15'9718.1
2018-Jun-17 22:37N 39°27' E 002°23'218.6
2018-Jun-17 22:30N 39°26' E 002°25'816.1
2018-Jun-17 22:00N 39°28' E 002°35'611.3
2018-Jun-17 21:30N 39°34' E 002°38'0 0.0
2018-Jun-17 20:59N 39°34' E 002°38'0 0.0
2018-Jun-17 20:29N 39°34' E 002°38'0 0.0
2018-Jun-17 19:59N 39°34' E 002°38'0 0.0
2018-Jun-17 19:29N 39°34' E 002°38'0 0.0
2018-Jun-17 18:56N 39°34' E 002°38'0 0.0
2018-Jun-17 18:29N 39°34' E 002°38'0 0.0
2018-Jun-17 17:56N 39°34' E 002°38'0 0.0
2018-Jun-17 17:29N 39°34' E 002°38'0 0.0
2018-Jun-17 16:59N 39°34' E 002°38'0 0.0
2018-Jun-17 16:29N 39°34' E 002°38'0 0.0
2018-Jun-17 15:59N 39°34' E 002°38'0 0.0
2018-Jun-17 15:29N 39°34' E 002°38'0 0.0
2018-Jun-17 14:59N 39°34' E 002°38'0 0.0
2018-Jun-17 14:29N 39°34' E 002°38'0 0.0
2018-Jun-17 13:56N 39°34' E 002°38'0 0.0
2018-Jun-17 13:29N 39°34' E 002°38'0 0.0
2018-Jun-17 12:59N 39°34' E 002°38'0 0.0
2018-Jun-17 12:29N 39°34' E 002°38'0 0.0
2018-Jun-17 11:56N 39°34' E 002°38'0 0.0
2018-Jun-17 11:29N 39°34' E 002°38'0 0.0
2018-Jun-17 10:59N 39°34' E 002°38'0 0.0
2018-Jun-17 10:29N 39°34' E 002°38'0 0.0
2018-Jun-17 09:59N 39°34' E 002°38'0 0.0
2018-Jun-17 09:29N 39°34' E 002°38'0 0.0
2018-Jun-17 08:59N 39°34' E 002°38'0 0.0
2018-Jun-17 08:29N 39°34' E 002°38'0 0.0
2018-Jun-17 07:59N 39°34' E 002°38'0 0.0
2018-Jun-17 07:29N 39°34' E 002°38'0 0.0
2018-Jun-17 06:56N 39°34' E 002°38'0 0.0
2018-Jun-17 06:29N 39°34' E 002°38'0 0.0
2018-Jun-17 05:59N 39°34' E 002°38'0 0.0
2018-Jun-17 05:29N 39°34' E 002°38'1 2.9
2018-Jun-17 05:00N 39°32' E 002°38'816.5
2018-Jun-17 04:30N 39°26' E 002°31'4614.9
2018-Jun-17 01:25N 40°10' E 002°14'2016.5
2018-Jun-17 00:13N 40°30' E 002°14'1717.8
2018-Jun-16 23:15N 40°47' E 002°14'820.2
2018-Jun-16 22:50N 40°56' E 002°14'720.2
2018-Jun-16 22:30N 41°02' E 002°13'1020.0
2018-Jun-16 22:00N 41°12' E 002°14'918.7
2018-Jun-16 21:30N 41°21' E 002°11'1 0.1
2018-Jun-16 05:55N 41°22' E 002°11'4 9.2
2018-Jun-16 05:30N 41°19' E 002°14'611.1
2018-Jun-16 05:00N 41°14' E 002°15'917.0
2018-Jun-16 04:29N 41°05' E 002°14'5317.0
2018-Jun-16 01:22N 40°12' E 002°17'1017.3
2018-Jun-16 00:48N 40°02' E 002°16'517.3
2018-Jun-16 00:29N 39°56' E 002°16'1018.7
2018-Jun-15 23:55N 39°46' E 002°16'1818.1
2018-Jun-15 22:56N 39°29' E 002°22'819.0
2018-Jun-15 22:30N 39°26' E 002°32'917.3
2018-Jun-15 22:00N 39°33' E 002°38'0 0.5
2018-Jun-15 21:29N 39°34' E 002°38'0 0.0
2018-Jun-15 20:59N 39°34' E 002°38'0 0.0
2018-Jun-15 20:29N 39°34' E 002°38'0 0.0
2018-Jun-15 19:59N 39°34' E 002°38'0 0.0
2018-Jun-15 19:29N 39°34' E 002°38'0 0.0
2018-Jun-15 18:59N 39°34' E 002°38'0 0.0
2018-Jun-15 18:27N 39°34' E 002°38'613.1
2018-Jun-15 18:00N 39°28' E 002°34'2915.8
2018-Jun-15 16:10N 39°54' E 002°16'820.0
2018-Jun-15 15:47N 40°01' E 002°16'720.3
2018-Jun-15 15:28N 40°08' E 002°16'2019.9
2018-Jun-15 14:27N 40°28' E 002°14'1319.6
2018-Jun-15 13:46N 40°41' E 002°15'520.2
2018-Jun-15 13:30N 40°47' E 002°14'1420.3
2018-Jun-15 12:49N 41°01' E 002°13'619.9
2018-Jun-15 12:31N 41°07' E 002°13'1019.7
2018-Jun-15 12:00N 41°17' E 002°13'6 3.2
2018-Jun-15 10:07N 41°22' E 002°11'0 0.0
2018-Jun-15 07:04N 41°22' E 002°11'0 0.1
2018-Jun-15 06:58N 41°22' E 002°11'0 0.0
2018-Jun-15 05:24N 41°22' E 002°11'3 7.4
2018-Jun-15 05:00N 41°20' E 002°13'816.1
2018-Jun-15 04:31N 41°12' E 002°17'1017.0
2018-Jun-15 03:57N 41°03' E 002°15'9319.2
2018-Jun-14 23:06N 39°30' E 002°19'219.5
2018-Jun-14 22:59N 39°28' E 002°21'919.0
2018-Jun-14 22:30N 39°26' E 002°32'918.5
2018-Jun-14 22:00N 39°33' E 002°39'0 0.7
2018-Jun-14 21:28N 39°34' E 002°38'0 0.0
2018-Jun-14 20:58N 39°34' E 002°38'0 0.0
2018-Jun-14 20:28N 39°34' E 002°38'0 0.0
2018-Jun-14 19:58N 39°34' E 002°38'0 0.0
2018-Jun-14 19:28N 39°34' E 002°38'0 0.0
2018-Jun-14 18:58N 39°34' E 002°38'0 0.0
2018-Jun-14 18:28N 39°34' E 002°38'2 3.8
2018-Jun-14 18:00N 39°32' E 002°38'918.0
2018-Jun-14 17:30N 39°27' E 002°28'9519.1
2018-Jun-14 12:30N 41°02' E 002°14'1019.6
2018-Jun-14 12:00N 41°11' E 002°14'918.7
2018-Jun-14 11:30N 41°20' E 002°12'2 0.3
2018-Jun-14 05:16N 41°22' E 002°11'1 5.6
2018-Jun-14 05:00N 41°21' E 002°12'917.6
2018-Jun-14 04:30N 41°13' E 002°15'9019.4
2018-Jun-13 23:51N 39°42' E 002°17'1317.9
2018-Jun-13 23:06N 39°29' E 002°20'218.9
2018-Jun-13 22:59N 39°28' E 002°21'918.6
2018-Jun-13 22:30N 39°26' E 002°33'816.7
2018-Jun-13 22:00N 39°33' E 002°38'0 0.3
2018-Jun-13 21:30N 39°34' E 002°38'0 0.0
2018-Jun-13 21:00N 39°34' E 002°38'0 0.0
2018-Jun-13 20:30N 39°34' E 002°38'0 0.0
2018-Jun-13 20:00N 39°34' E 002°38'0 0.0
2018-Jun-13 19:30N 39°34' E 002°38'0 0.0
2018-Jun-13 19:00N 39°34' E 002°38'0 0.0
2018-Jun-13 18:30N 39°34' E 002°38'2 3.4
2018-Jun-13 18:00N 39°32' E 002°38'918.3
2018-Jun-13 17:30N 39°26' E 002°29'7618.7
2018-Jun-13 13:26N 40°42' E 002°14'920.0
2018-Jun-13 12:59N 40°50' E 002°14'1020.3
2018-Jun-13 12:31N 41°00' E 002°14'1020.3
2018-Jun-13 12:00N 41°10' E 002°15'1019.3
2018-Jun-13 11:30N 41°20' E 002°13'3 0.5
2018-Jun-13 05:22N 41°22' E 002°11'2 6.1
2018-Jun-13 05:00N 41°20' E 002°12'1019.2
2018-Jun-13 04:30N 41°11' E 002°15'6519.2
2018-Jun-13 01:08N 40°06' E 002°17'3618.2
2018-Jun-12 23:08N 39°30' E 002°20'318.9
2018-Jun-12 23:00N 39°28' E 002°23'817.2
2018-Jun-12 22:30N 39°27' E 002°34'714.1
2018-Jun-12 21:59N 39°34' E 002°38'0 0.0
2018-Jun-12 21:29N 39°34' E 002°38'0 0.0
2018-Jun-12 20:59N 39°34' E 002°38'0 0.0
2018-Jun-12 20:29N 39°34' E 002°38'0 0.0
2018-Jun-12 19:59N 39°34' E 002°38'0 0.0
2018-Jun-12 19:29N 39°34' E 002°38'0 0.0
2018-Jun-12 18:47N 39°34' E 002°38'0 0.0
2018-Jun-12 18:29N 39°34' E 002°38'2 3.8
2018-Jun-12 18:00N 39°32' E 002°38'918.4
2018-Jun-12 17:30N 39°26' E 002°28'9019.0
2018-Jun-12 12:47N 40°55' E 002°14'620.0
2018-Jun-12 12:30N 41°01' E 002°14'1019.7
2018-Jun-12 12:00N 41°11' E 002°15'918.8
2018-Jun-12 11:30N 41°20' E 002°13'3 4.2
2018-Jun-12 10:51N 41°22' E 002°11'0 0.0
2018-Jun-12 10:28N 41°22' E 002°11'0 0.0
2018-Jun-12 09:49N 41°22' E 002°11'0 0.0
2018-Jun-12 09:28N 41°22' E 002°11'0 0.0
2018-Jun-12 08:40N 41°22' E 002°11'0 0.0
2018-Jun-12 08:30N 41°22' E 002°11'0 0.0
2018-Jun-12 08:00N 41°22' E 002°11'0 0.0
2018-Jun-12 07:29N 41°22' E 002°11'0 0.0
2018-Jun-12 07:00N 41°22' E 002°11'0 0.0
2018-Jun-12 06:25N 41°22' E 002°11'0 0.0
2018-Jun-12 05:59N 41°22' E 002°11'0 0.0
2018-Jun-12 05:23N 41°22' E 002°11'1 4.0
2018-Jun-12 05:01N 41°21' E 002°12'816.7
2018-Jun-12 04:30N 41°13' E 002°15'1018.2
2018-Jun-12 03:59N 41°03' E 002°15'5319.1
2018-Jun-12 01:14N 40°11' E 002°17'519.6
2018-Jun-12 00:58N 40°06' E 002°17'1220.1
2018-Jun-12 00:21N 39°53' E 002°17'2319.0
2018-Jun-11 23:08N 39°30' E 002°20'219.3
2018-Jun-11 23:00N 39°28' E 002°22'917.9
2018-Jun-11 22:31N 39°26' E 002°33'815.5
2018-Jun-11 21:58N 39°34' E 002°38'0 0.0
2018-Jun-11 21:28N 39°34' E 002°38'0 0.0
2018-Jun-11 20:58N 39°34' E 002°38'0 0.0
2018-Jun-11 20:28N 39°34' E 002°38'0 0.0
2018-Jun-11 19:58N 39°34' E 002°38'0 0.0
2018-Jun-11 19:28N 39°34' E 002°38'0 0.0
2018-Jun-11 18:58N 39°34' E 002°38'0 0.0
2018-Jun-11 18:29N 39°34' E 002°38'510.3
2018-Jun-11 18:00N 39°29' E 002°36'816.5
2018-Jun-11 17:30N 39°28' E 002°25'6319.2
2018-Jun-11 14:15N 40°30' E 002°15'619.1
2018-Jun-11 13:57N 40°35' E 002°15'1019.7
2018-Jun-11 13:28N 40°45' E 002°15'920.1
2018-Jun-11 13:01N 40°54' E 002°14'1020.0
2018-Jun-11 12:30N 41°04' E 002°14'1019.7
2018-Jun-11 12:01N 41°14' E 002°14'816.4
2018-Jun-11 11:31N 41°22' E 002°11'0 0.0
2018-Jun-11 05:09N 41°22' E 002°11'1 7.1
2018-Jun-11 05:01N 41°21' E 002°11'612.8
2018-Jun-11 04:30N 41°16' E 002°16'1019.0
2018-Jun-11 04:00N 41°06' E 002°14'7319.3
2018-Jun-11 00:15N 39°54' E 002°17'2418.9
2018-Jun-10 23:00N 39°30' E 002°19'918.6
2018-Jun-10 22:30N 39°25' E 002°29'918.6
2018-Jun-10 22:00N 39°31' E 002°38'2 3.9
2018-Jun-10 21:28N 39°34' E 002°38'0 0.0
2018-Jun-10 20:58N 39°34' E 002°38'0 0.0
2018-Jun-10 20:28N 39°34' E 002°38'0 0.0
2018-Jun-10 19:58N 39°34' E 002°38'0 0.0
2018-Jun-10 19:28N 39°34' E 002°38'0 0.0
2018-Jun-10 18:58N 39°34' E 002°38'0 0.0
2018-Jun-10 18:28N 39°34' E 002°38'0 0.0
2018-Jun-10 17:58N 39°34' E 002°38'  

Dump ship's entire track history